Dundee, Illinois
Current Conditions -  °F | °C
As of 8:52 PM on Friday 21 Nov 2014 (Local Time) from KDPA Reporting Station
Overcast Overcast  
Wind Chill: 21°   Ceiling: 3400
Heat Index: 31°   Visibility: 10mi
Dew Point: 10°   Wind: 14mph
Humidity: 42%   Direction: 170°S
Pressure: 30.23"   Gusts: NA
Location:  42.1°N, 88.29°W
Report Text: KDPA 220252Z 17012KT 10SM OVC034 M01/M12 A3023 RMK AO2 SLP247 T10061122 58020
Loading
Personal Weather Stations






























Interactive Weather Map New forecast layout! Learn more

10-Day Weather Forecast

Advertisements
Track Severe Weather on mobile